sensor_id;sensor_type;location;lat;lon;timestamp;P1;durP1;ratioP1;P2;durP2;ratioP2
66609;SDS011;53468;48.276;14.416;2023-01-23T00:04:55;37.55;;;20.33;;
66609;SDS011;53468;48.276;14.416;2023-01-23T00:09:57;40.75;;;18.92;;
66609;SDS011;53468;48.276;14.416;2023-01-23T00:15:00;36.35;;;17.25;;
66609;SDS011;53468;48.276;14.416;2023-01-23T00:20:03;34.90;;;19.02;;
66609;SDS011;53468;48.276;14.416;2023-01-23T00:25:06;32.42;;;17.70;;
66609;SDS011;53468;48.276;14.416;2023-01-23T00:30:09;35.20;;;17.92;;
66609;SDS011;53468;48.276;14.416;2023-01-23T00:35:14;33.80;;;17.38;;
66609;SDS011;53468;48.276;14.416;2023-01-23T00:40:16;35.58;;;17.65;;
66609;SDS011;53468;48.276;14.416;2023-01-23T00:45:18;30.45;;;17.23;;
66609;SDS011;53468;48.276;14.416;2023-01-23T00:50:22;34.10;;;16.52;;
66609;SDS011;53468;48.276;14.416;2023-01-23T00:55:24;32.38;;;18.73;;
66609;SDS011;53468;48.276;14.416;2023-01-23T01:00:26;34.97;;;18.80;;
66609;SDS011;53468;48.276;14.416;2023-01-23T01:05:29;39.58;;;18.02;;
66609;SDS011;53468;48.276;14.416;2023-01-23T01:10:31;36.17;;;17.52;;
66609;SDS011;53468;48.276;14.416;2023-01-23T01:15:34;35.60;;;16.20;;
66609;SDS011;53468;48.276;14.416;2023-01-23T01:20:38;31.70;;;17.08;;
66609;SDS011;53468;48.276;14.416;2023-01-23T01:25:41;32.33;;;15.73;;
66609;SDS011;53468;48.276;14.416;2023-01-23T01:30:43;34.10;;;17.23;;
66609;SDS011;53468;48.276;14.416;2023-01-23T01:35:47;35.38;;;19.10;;
66609;SDS011;53468;48.276;14.416;2023-01-23T01:40:50;33.20;;;16.65;;
66609;SDS011;53468;48.276;14.416;2023-01-23T01:46:01;34.47;;;17.08;;
66609;SDS011;53468;48.276;14.416;2023-01-23T01:51:09;35.42;;;17.63;;
66609;SDS011;53468;48.276;14.416;2023-01-23T01:56:15;36.85;;;17.85;;
66609;SDS011;53468;48.276;14.416;2023-01-23T02:01:19;32.50;;;17.45;;
66609;SDS011;53468;48.276;14.416;2023-01-23T02:06:22;30.35;;;15.65;;
66609;SDS011;53468;48.276;14.416;2023-01-23T02:11:25;36.92;;;17.85;;
66609;SDS011;53468;48.276;14.416;2023-01-23T02:16:28;34.88;;;18.25;;
66609;SDS011;53468;48.276;14.416;2023-01-23T02:21:40;37.75;;;18.52;;
66609;SDS011;53468;48.276;14.416;2023-01-23T02:26:45;39.55;;;19.77;;
66609;SDS011;53468;48.276;14.416;2023-01-23T02:31:47;38.80;;;18.95;;
66609;SDS011;53468;48.276;14.416;2023-01-23T02:36:51;38.03;;;19.00;;
66609;SDS011;53468;48.276;14.416;2023-01-23T02:41:55;33.40;;;17.20;;
66609;SDS011;53468;48.276;14.416;2023-01-23T02:46:59;38.65;;;20.73;;
66609;SDS011;53468;48.276;14.416;2023-01-23T02:52:03;36.40;;;19.85;;
66609;SDS011;53468;48.276;14.416;2023-01-23T02:57:07;35.42;;;18.60;;
66609;SDS011;53468;48.276;14.416;2023-01-23T03:02:09;36.53;;;18.00;;
66609;SDS011;53468;48.276;14.416;2023-01-23T03:07:13;34.00;;;17.70;;
66609;SDS011;53468;48.276;14.416;2023-01-23T03:12:17;41.38;;;19.67;;
66609;SDS011;53468;48.276;14.416;2023-01-23T03:17:19;38.35;;;19.50;;
66609;SDS011;53468;48.276;14.416;2023-01-23T03:22:21;38.47;;;17.63;;
66609;SDS011;53468;48.276;14.416;2023-01-23T03:27:24;41.03;;;19.30;;
66609;SDS011;53468;48.276;14.416;2023-01-23T03:32:26;33.97;;;17.83;;
66609;SDS011;53468;48.276;14.416;2023-01-23T03:37:29;39.65;;;19.50;;
66609;SDS011;53468;48.276;14.416;2023-01-23T03:42:33;43.83;;;18.02;;
66609;SDS011;53468;48.276;14.416;2023-01-23T03:47:36;37.85;;;19.20;;
66609;SDS011;53468;48.276;14.416;2023-01-23T03:52:38;35.40;;;18.23;;
66609;SDS011;53468;48.276;14.416;2023-01-23T03:57:41;44.13;;;21.55;;
66609;SDS011;53468;48.276;14.416;2023-01-23T04:02:43;47.42;;;20.60;;
66609;SDS011;53468;48.276;14.416;2023-01-23T04:07:45;40.08;;;19.92;;
66609;SDS011;53468;48.276;14.416;2023-01-23T04:12:49;44.90;;;21.95;;
66609;SDS011;53468;48.276;14.416;2023-01-23T04:17:51;45.80;;;20.52;;
66609;SDS011;53468;48.276;14.416;2023-01-23T04:22:53;37.92;;;19.75;;
66609;SDS011;53468;48.276;14.416;2023-01-23T04:27:57;40.58;;;19.60;;
66609;SDS011;53468;48.276;14.416;2023-01-23T04:32:59;41.50;;;20.67;;
66609;SDS011;53468;48.276;14.416;2023-01-23T04:38:01;40.35;;;19.67;;
66609;SDS011;53468;48.276;14.416;2023-01-23T04:43:04;35.63;;;19.20;;
66609;SDS011;53468;48.276;14.416;2023-01-23T04:48:06;40.63;;;20.10;;
66609;SDS011;53468;48.276;14.416;2023-01-23T04:53:08;38.38;;;19.48;;
66609;SDS011;53468;48.276;14.416;2023-01-23T04:58:12;40.55;;;20.45;;
66609;SDS011;53468;48.276;14.416;2023-01-23T05:03:14;42.53;;;21.30;;
66609;SDS011;53468;48.276;14.416;2023-01-23T05:08:17;44.00;;;20.80;;
66609;SDS011;53468;48.276;14.416;2023-01-23T05:13:20;50.03;;;20.95;;
66609;SDS011;53468;48.276;14.416;2023-01-23T05:18:22;45.22;;;21.85;;
66609;SDS011;53468;48.276;14.416;2023-01-23T05:23:24;42.60;;;20.50;;
66609;SDS011;53468;48.276;14.416;2023-01-23T05:28:28;41.92;;;21.63;;
66609;SDS011;53468;48.276;14.416;2023-01-23T05:33:30;42.67;;;20.67;;
66609;SDS011;53468;48.276;14.416;2023-01-23T05:38:32;38.58;;;20.55;;
66609;SDS011;53468;48.276;14.416;2023-01-23T05:43:36;44.25;;;20.80;;
66609;SDS011;53468;48.276;14.416;2023-01-23T05:48:38;40.50;;;19.50;;
66609;SDS011;53468;48.276;14.416;2023-01-23T05:53:40;37.88;;;18.67;;
66609;SDS011;53468;48.276;14.416;2023-01-23T05:58:43;41.00;;;20.23;;
66609;SDS011;53468;48.276;14.416;2023-01-23T06:03:46;38.88;;;19.27;;
66609;SDS011;53468;48.276;14.416;2023-01-23T06:08:48;40.35;;;21.98;;
66609;SDS011;53468;48.276;14.416;2023-01-23T06:13:51;43.75;;;21.88;;
66609;SDS011;53468;48.276;14.416;2023-01-23T06:18:54;46.05;;;20.90;;
66609;SDS011;53468;48.276;14.416;2023-01-23T06:23:57;43.72;;;21.15;;
66609;SDS011;53468;48.276;14.416;2023-01-23T06:29:01;41.33;;;19.60;;
66609;SDS011;53468;48.276;14.416;2023-01-23T06:34:03;39.70;;;20.00;;
66609;SDS011;53468;48.276;14.416;2023-01-23T06:39:05;41.20;;;20.85;;
66609;SDS011;53468;48.276;14.416;2023-01-23T06:44:08;44.47;;;21.00;;
66609;SDS011;53468;48.276;14.416;2023-01-23T06:49:10;41.53;;;21.27;;
66609;SDS011;53468;48.276;14.416;2023-01-23T06:54:13;41.55;;;21.23;;
66609;SDS011;53468;48.276;14.416;2023-01-23T06:59:17;45.13;;;22.05;;
66609;SDS011;53468;48.276;14.416;2023-01-23T07:04:19;41.58;;;20.58;;
66609;SDS011;53468;48.276;14.416;2023-01-23T07:09:21;42.53;;;20.77;;
66609;SDS011;53468;48.276;14.416;2023-01-23T07:14:24;41.10;;;20.50;;
66609;SDS011;53468;48.276;14.416;2023-01-23T07:19:27;43.33;;;20.27;;
66609;SDS011;53468;48.276;14.416;2023-01-23T07:24:30;48.85;;;20.95;;
66609;SDS011;53468;48.276;14.416;2023-01-23T07:29:33;42.75;;;21.50;;
66609;SDS011;53468;48.276;14.416;2023-01-23T07:34:35;41.33;;;20.85;;
66609;SDS011;53468;48.276;14.416;2023-01-23T07:39:37;40.10;;;19.55;;
66609;SDS011;53468;48.276;14.416;2023-01-23T07:44:40;44.17;;;23.95;;
66609;SDS011;53468;48.276;14.416;2023-01-23T07:49:42;47.33;;;22.40;;
66609;SDS011;53468;48.276;14.416;2023-01-23T07:54:45;48.83;;;23.35;;
66609;SDS011;53468;48.276;14.416;2023-01-23T07:59:49;46.90;;;22.77;;
66609;SDS011;53468;48.276;14.416;2023-01-23T08:04:51;37.28;;;20.13;;
66609;SDS011;53468;48.276;14.416;2023-01-23T08:09:53;43.65;;;21.42;;
66609;SDS011;53468;48.276;14.416;2023-01-23T08:14:56;36.15;;;19.63;;
66609;SDS011;53468;48.276;14.416;2023-01-23T08:19:58;41.80;;;21.35;;
66609;SDS011;53468;48.276;14.416;2023-01-23T08:25:00;45.60;;;21.70;;
66609;SDS011;53468;48.276;14.416;2023-01-23T08:30:05;41.33;;;22.40;;
66609;SDS011;53468;48.276;14.416;2023-01-23T08:35:08;42.40;;;21.33;;
66609;SDS011;53468;48.276;14.416;2023-01-23T08:40:11;39.42;;;21.17;;
66609;SDS011;53468;48.276;14.416;2023-01-23T08:45:14;41.30;;;20.92;;
66609;SDS011;53468;48.276;14.416;2023-01-23T08:50:17;37.45;;;20.80;;
66609;SDS011;53468;48.276;14.416;2023-01-23T08:55:19;41.38;;;22.13;;
66609;SDS011;53468;48.276;14.416;2023-01-23T09:00:23;43.05;;;21.52;;
66609;SDS011;53468;48.276;14.416;2023-01-23T09:05:25;41.28;;;21.88;;
66609;SDS011;53468;48.276;14.416;2023-01-23T09:10:28;38.22;;;20.48;;
66609;SDS011;53468;48.276;14.416;2023-01-23T09:15:32;39.47;;;20.80;;
66609;SDS011;53468;48.276;14.416;2023-01-23T09:20:34;45.85;;;23.58;;
66609;SDS011;53468;48.276;14.416;2023-01-23T09:25:38;41.60;;;21.75;;
66609;SDS011;53468;48.276;14.416;2023-01-23T09:30:42;40.67;;;21.98;;
66609;SDS011;53468;48.276;14.416;2023-01-23T09:35:44;44.92;;;22.77;;
66609;SDS011;53468;48.276;14.416;2023-01-23T09:40:52;40.75;;;20.65;;
66609;SDS011;53468;48.276;14.416;2023-01-23T09:46:00;40.15;;;19.90;;
66609;SDS011;53468;48.276;14.416;2023-01-23T09:51:09;38.72;;;19.55;;
66609;SDS011;53468;48.276;14.416;2023-01-23T09:56:28;43.25;;;23.33;;
66609;SDS011;53468;48.276;14.416;2023-01-23T10:01:33;44.72;;;22.73;;
66609;SDS011;53468;48.276;14.416;2023-01-23T10:06:43;43.30;;;21.25;;
66609;SDS011;53468;48.276;14.416;2023-01-23T10:11:58;42.17;;;22.00;;
66609;SDS011;53468;48.276;14.416;2023-01-23T10:17:11;43.30;;;22.70;;
66609;SDS011;53468;48.276;14.416;2023-01-23T10:22:25;50.60;;;23.92;;
66609;SDS011;53468;48.276;14.416;2023-01-23T10:27:36;45.92;;;22.17;;
66609;SDS011;53468;48.276;14.416;2023-01-23T10:32:45;43.78;;;22.58;;
66609;SDS011;53468;48.276;14.416;2023-01-23T10:37:52;43.20;;;22.90;;
66609;SDS011;53468;48.276;14.416;2023-01-23T10:43:00;46.35;;;23.95;;
66609;SDS011;53468;48.276;14.416;2023-01-23T10:48:04;49.25;;;23.90;;
66609;SDS011;53468;48.276;14.416;2023-01-23T10:53:27;43.25;;;22.60;;
66609;SDS011;53468;48.276;14.416;2023-01-23T10:58:31;43.67;;;22.58;;
66609;SDS011;53468;48.276;14.416;2023-01-23T11:03:41;53.13;;;25.52;;
66609;SDS011;53468;48.276;14.416;2023-01-23T11:08:49;47.42;;;22.77;;
66609;SDS011;53468;48.276;14.416;2023-01-23T11:14:03;41.38;;;24.80;;
66609;SDS011;53468;48.276;14.416;2023-01-23T11:19:14;45.75;;;21.60;;
66609;SDS011;53468;48.276;14.416;2023-01-23T11:24:21;46.55;;;23.33;;
66609;SDS011;53468;48.276;14.416;2023-01-23T11:29:41;40.65;;;21.85;;
66609;SDS011;53468;48.276;14.416;2023-01-23T11:34:55;44.60;;;23.02;;
66609;SDS011;53468;48.276;14.416;2023-01-23T11:40:12;43.28;;;22.88;;
66609;SDS011;53468;48.276;14.416;2023-01-23T11:45:20;37.78;;;20.33;;
66609;SDS011;53468;48.276;14.416;2023-01-23T11:50:39;33.55;;;18.20;;
66609;SDS011;53468;48.276;14.416;2023-01-23T11:55:51;37.50;;;20.40;;
66609;SDS011;53468;48.276;14.416;2023-01-23T12:01:02;37.50;;;19.85;;
66609;SDS011;53468;48.276;14.416;2023-01-23T12:06:16;37.33;;;19.20;;
66609;SDS011;53468;48.276;14.416;2023-01-23T12:11:34;36.67;;;18.02;;
66609;SDS011;53468;48.276;14.416;2023-01-23T12:16:57;37.42;;;17.92;;
66609;SDS011;53468;48.276;14.416;2023-01-23T12:22:11;34.95;;;17.98;;
66609;SDS011;53468;48.276;14.416;2023-01-23T12:27:20;37.15;;;20.33;;
66609;SDS011;53468;48.276;14.416;2023-01-23T12:32:35;32.87;;;18.53;;
66609;SDS011;53468;48.276;14.416;2023-01-23T12:37:51;37.80;;;19.27;;
66609;SDS011;53468;48.276;14.416;2023-01-23T12:43:15;33.88;;;17.17;;
66609;SDS011;53468;48.276;14.416;2023-01-23T12:48:21;33.40;;;18.25;;
66609;SDS011;53468;48.276;14.416;2023-01-23T12:53:30;32.95;;;18.08;;
66609;SDS011;53468;48.276;14.416;2023-01-23T12:58:39;35.97;;;18.77;;
66609;SDS011;53468;48.276;14.416;2023-01-23T13:03:49;36.53;;;20.58;;
66609;SDS011;53468;48.276;14.416;2023-01-23T13:09:05;34.10;;;17.35;;
66609;SDS011;53468;48.276;14.416;2023-01-23T13:14:15;34.05;;;18.95;;
66609;SDS011;53468;48.276;14.416;2023-01-23T13:19:42;41.72;;;20.92;;
66609;SDS011;53468;48.276;14.416;2023-01-23T13:25:06;35.08;;;18.13;;
66609;SDS011;53468;48.276;14.416;2023-01-23T13:35:50;41.20;;;20.75;;
66609;SDS011;53468;48.276;14.416;2023-01-23T13:46:36;40.00;;;19.30;;
66609;SDS011;53468;48.276;14.416;2023-01-23T13:51:53;33.65;;;19.23;;
66609;SDS011;53468;48.276;14.416;2023-01-23T13:56:59;40.00;;;20.67;;
66609;SDS011;53468;48.276;14.416;2023-01-23T14:02:12;39.67;;;20.92;;
66609;SDS011;53468;48.276;14.416;2023-01-23T14:07:38;40.05;;;17.88;;
66609;SDS011;53468;48.276;14.416;2023-01-23T14:12:46;37.70;;;19.02;;
66609;SDS011;53468;48.276;14.416;2023-01-23T14:17:49;42.38;;;19.67;;
66609;SDS011;53468;48.276;14.416;2023-01-23T14:22:52;38.60;;;18.60;;
66609;SDS011;53468;48.276;14.416;2023-01-23T14:28:03;28.88;;;16.63;;
66609;SDS011;53468;48.276;14.416;2023-01-23T14:33:09;39.20;;;17.87;;
66609;SDS011;53468;48.276;14.416;2023-01-23T14:38:15;35.67;;;16.25;;
66609;SDS011;53468;48.276;14.416;2023-01-23T14:43:25;39.17;;;17.37;;
66609;SDS011;53468;48.276;14.416;2023-01-23T14:48:30;32.47;;;16.45;;
66609;SDS011;53468;48.276;14.416;2023-01-23T14:53:40;32.13;;;17.95;;
66609;SDS011;53468;48.276;14.416;2023-01-23T14:58:44;30.60;;;16.35;;
66609;SDS011;53468;48.276;14.416;2023-01-23T15:03:53;33.60;;;16.33;;
66609;SDS011;53468;48.276;14.416;2023-01-23T15:09:03;30.02;;;15.48;;
66609;SDS011;53468;48.276;14.416;2023-01-23T15:14:23;35.45;;;17.67;;
66609;SDS011;53468;48.276;14.416;2023-01-23T15:19:38;35.28;;;16.85;;
66609;SDS011;53468;48.276;14.416;2023-01-23T15:24:47;35.72;;;17.98;;
66609;SDS011;53468;48.276;14.416;2023-01-23T15:29:51;37.17;;;17.75;;
66609;SDS011;53468;48.276;14.416;2023-01-23T15:35:16;34.78;;;16.33;;
66609;SDS011;53468;48.276;14.416;2023-01-23T15:40:18;34.55;;;18.13;;
66609;SDS011;53468;48.276;14.416;2023-01-23T15:45:28;37.20;;;17.63;;
66609;SDS011;53468;48.276;14.416;2023-01-23T15:50:30;40.75;;;19.60;;
66609;SDS011;53468;48.276;14.416;2023-01-23T15:55:32;42.88;;;19.38;;
66609;SDS011;53468;48.276;14.416;2023-01-23T16:00:35;34.47;;;19.48;;
66609;SDS011;53468;48.276;14.416;2023-01-23T16:05:38;33.85;;;18.52;;
66609;SDS011;53468;48.276;14.416;2023-01-23T16:10:41;36.35;;;18.13;;
66609;SDS011;53468;48.276;14.416;2023-01-23T16:15:45;35.85;;;18.65;;
66609;SDS011;53468;48.276;14.416;2023-01-23T16:20:47;35.60;;;18.85;;
66609;SDS011;53468;48.276;14.416;2023-01-23T16:25:50;40.60;;;20.13;;
66609;SDS011;53468;48.276;14.416;2023-01-23T16:30:53;37.40;;;19.60;;
66609;SDS011;53468;48.276;14.416;2023-01-23T16:35:56;36.75;;;17.50;;
66609;SDS011;53468;48.276;14.416;2023-01-23T16:40:58;38.33;;;19.13;;
66609;SDS011;53468;48.276;14.416;2023-01-23T16:46:02;41.83;;;17.63;;
66609;SDS011;53468;48.276;14.416;2023-01-23T16:51:06;32.30;;;16.83;;
66609;SDS011;53468;48.276;14.416;2023-01-23T16:56:16;38.85;;;18.60;;
66609;SDS011;53468;48.276;14.416;2023-01-23T17:01:23;32.72;;;16.90;;
66609;SDS011;53468;48.276;14.416;2023-01-23T17:06:26;31.55;;;16.77;;
66609;SDS011;53468;48.276;14.416;2023-01-23T17:11:29;34.22;;;16.90;;
66609;SDS011;53468;48.276;14.416;2023-01-23T17:16:36;33.67;;;17.33;;
66609;SDS011;53468;48.276;14.416;2023-01-23T17:21:39;33.38;;;16.95;;
66609;SDS011;53468;48.276;14.416;2023-01-23T17:26:42;32.90;;;16.30;;
66609;SDS011;53468;48.276;14.416;2023-01-23T17:31:46;35.05;;;16.33;;
66609;SDS011;53468;48.276;14.416;2023-01-23T17:36:49;36.65;;;16.83;;
66609;SDS011;53468;48.276;14.416;2023-01-23T17:41:53;38.90;;;18.58;;
66609;SDS011;53468;48.276;14.416;2023-01-23T17:46:56;31.17;;;16.80;;
66609;SDS011;53468;48.276;14.416;2023-01-23T17:51:59;35.75;;;16.17;;
66609;SDS011;53468;48.276;14.416;2023-01-23T17:57:01;33.17;;;15.95;;
66609;SDS011;53468;48.276;14.416;2023-01-23T18:02:09;30.35;;;15.07;;
66609;SDS011;53468;48.276;14.416;2023-01-23T18:07:22;33.20;;;15.60;;
66609;SDS011;53468;48.276;14.416;2023-01-23T18:12:27;29.17;;;14.23;;
66609;SDS011;53468;48.276;14.416;2023-01-23T18:17:43;33.15;;;15.00;;
66609;SDS011;53468;48.276;14.416;2023-01-23T18:22:49;36.25;;;15.38;;
66609;SDS011;53468;48.276;14.416;2023-01-23T18:27:52;35.20;;;15.90;;
66609;SDS011;53468;48.276;14.416;2023-01-23T18:33:02;37.90;;;17.00;;
66609;SDS011;53468;48.276;14.416;2023-01-23T18:38:30;29.65;;;15.75;;
66609;SDS011;53468;48.276;14.416;2023-01-23T18:43:42;29.42;;;15.50;;
66609;SDS011;53468;48.276;14.416;2023-01-23T18:48:49;38.63;;;16.00;;
66609;SDS011;53468;48.276;14.416;2023-01-23T18:53:54;36.00;;;15.85;;
66609;SDS011;53468;48.276;14.416;2023-01-23T18:59:05;31.35;;;14.55;;
66609;SDS011;53468;48.276;14.416;2023-01-23T19:04:19;31.77;;;16.55;;
66609;SDS011;53468;48.276;14.416;2023-01-23T19:09:30;38.30;;;16.02;;
66609;SDS011;53468;48.276;14.416;2023-01-23T19:14:51;31.90;;;16.48;;
66609;SDS011;53468;48.276;14.416;2023-01-23T19:20:04;33.38;;;17.42;;
66609;SDS011;53468;48.276;14.416;2023-01-23T19:25:20;35.45;;;16.85;;
66609;SDS011;53468;48.276;14.416;2023-01-23T19:30:23;33.60;;;17.15;;
66609;SDS011;53468;48.276;14.416;2023-01-23T19:35:27;29.38;;;15.02;;
66609;SDS011;53468;48.276;14.416;2023-01-23T19:40:29;28.50;;;14.93;;
66609;SDS011;53468;48.276;14.416;2023-01-23T19:45:31;34.45;;;14.63;;
66609;SDS011;53468;48.276;14.416;2023-01-23T19:50:35;34.83;;;16.40;;
66609;SDS011;53468;48.276;14.416;2023-01-23T19:55:38;30.75;;;14.70;;
66609;SDS011;53468;48.276;14.416;2023-01-23T20:00:40;31.35;;;14.32;;
66609;SDS011;53468;48.276;14.416;2023-01-23T20:05:43;33.90;;;13.80;;
66609;SDS011;53468;48.276;14.416;2023-01-23T20:10:45;29.90;;;14.55;;
66609;SDS011;53468;48.276;14.416;2023-01-23T20:15:47;28.60;;;14.85;;
66609;SDS011;53468;48.276;14.416;2023-01-23T20:20:51;30.55;;;14.75;;
66609;SDS011;53468;48.276;14.416;2023-01-23T20:25:58;30.20;;;15.48;;
66609;SDS011;53468;48.276;14.416;2023-01-23T20:31:02;29.17;;;14.35;;
66609;SDS011;53468;48.276;14.416;2023-01-23T20:36:07;27.58;;;13.73;;
66609;SDS011;53468;48.276;14.416;2023-01-23T20:41:11;31.75;;;14.82;;
66609;SDS011;53468;48.276;14.416;2023-01-23T20:46:15;36.40;;;17.38;;
66609;SDS011;53468;48.276;14.416;2023-01-23T20:51:19;34.10;;;15.68;;
66609;SDS011;53468;48.276;14.416;2023-01-23T20:56:21;32.97;;;16.85;;
66609;SDS011;53468;48.276;14.416;2023-01-23T21:01:27;42.30;;;17.20;;
66609;SDS011;53468;48.276;14.416;2023-01-23T21:06:51;33.63;;;15.77;;
66609;SDS011;53468;48.276;14.416;2023-01-23T21:11:53;29.70;;;16.25;;
66609;SDS011;53468;48.276;14.416;2023-01-23T21:16:55;33.63;;;17.63;;
66609;SDS011;53468;48.276;14.416;2023-01-23T21:21:59;38.25;;;17.80;;
66609;SDS011;53468;48.276;14.416;2023-01-23T21:27:02;33.08;;;18.05;;
66609;SDS011;53468;48.276;14.416;2023-01-23T21:32:05;33.92;;;16.77;;
66609;SDS011;53468;48.276;14.416;2023-01-23T21:37:08;40.60;;;18.52;;
66609;SDS011;53468;48.276;14.416;2023-01-23T21:42:10;33.65;;;15.07;;
66609;SDS011;53468;48.276;14.416;2023-01-23T21:47:12;33.78;;;16.92;;
66609;SDS011;53468;48.276;14.416;2023-01-23T21:52:16;36.53;;;17.92;;
66609;SDS011;53468;48.276;14.416;2023-01-23T21:57:18;33.15;;;16.27;;
66609;SDS011;53468;48.276;14.416;2023-01-23T22:02:20;33.47;;;15.90;;
66609;SDS011;53468;48.276;14.416;2023-01-23T22:07:24;30.98;;;15.15;;
66609;SDS011;53468;48.276;14.416;2023-01-23T22:12:26;30.35;;;14.98;;
66609;SDS011;53468;48.276;14.416;2023-01-23T22:17:28;29.88;;;14.73;;
66609;SDS011;53468;48.276;14.416;2023-01-23T22:22:31;32.00;;;15.32;;
66609;SDS011;53468;48.276;14.416;2023-01-23T22:27:33;32.10;;;14.93;;
66609;SDS011;53468;48.276;14.416;2023-01-23T22:32:35;27.25;;;14.27;;
66609;SDS011;53468;48.276;14.416;2023-01-23T22:37:38;28.50;;;15.25;;
66609;SDS011;53468;48.276;14.416;2023-01-23T22:42:42;32.38;;;15.63;;
66609;SDS011;53468;48.276;14.416;2023-01-23T22:47:45;30.75;;;15.13;;
66609;SDS011;53468;48.276;14.416;2023-01-23T22:52:48;28.95;;;14.25;;
66609;SDS011;53468;48.276;14.416;2023-01-23T22:57:50;31.10;;;15.35;;
66609;SDS011;53468;48.276;14.416;2023-01-23T23:02:52;33.05;;;14.77;;
66609;SDS011;53468;48.276;14.416;2023-01-23T23:07:56;29.08;;;15.90;;
66609;SDS011;53468;48.276;14.416;2023-01-23T23:12:58;32.20;;;17.25;;
66609;SDS011;53468;48.276;14.416;2023-01-23T23:18:01;33.03;;;16.17;;
66609;SDS011;53468;48.276;14.416;2023-01-23T23:23:05;30.15;;;14.95;;
66609;SDS011;53468;48.276;14.416;2023-01-23T23:28:07;28.00;;;14.40;;
66609;SDS011;53468;48.276;14.416;2023-01-23T23:33:09;35.85;;;16.70;;
66609;SDS011;53468;48.276;14.416;2023-01-23T23:38:13;37.45;;;17.08;;
66609;SDS011;53468;48.276;14.416;2023-01-23T23:43:15;32.05;;;16.75;;
66609;SDS011;53468;48.276;14.416;2023-01-23T23:48:17;30.80;;;16.13;;
66609;SDS011;53468;48.276;14.416;2023-01-23T23:53:22;27.90;;;14.52;;
66609;SDS011;53468;48.276;14.416;2023-01-23T23:58:24;30.55;;;15.63;;
